Time;durP1;ratioP1;P1;durP2;ratioP2;P2;SDS_P1;SDS_P2;PMS_P1;PMS_P2;Temp;Humidity;BMP_temperature;BMP_pressure;BME280_temperature;BME280_humidity;BME280_pressure;Samples;Min_cycle;Max_cycle;Signal;HPM_P1;HPM_P2
2022/08/31 00:04:04;;;;;;;1999.90;999.90;;;15.70;99.90;;;;;;4147764;28;20192;-73
2022/08/31 00:06:05;;;;;;;1999.90;552.93;;;15.70;99.90;;;;;;4147186;28;20263;-73
2022/08/31 00:08:06;;;;;;;1999.90;530.43;;;15.70;99.90;;;;;;4148118;28;20209;-72
2022/08/31 00:10:17;;;;;;;1999.90;999.90;;;15.90;99.90;;;;;;4148168;28;20614;-73
2022/08/31 00:12:18;;;;;;;1999.90;999.90;;;15.80;99.90;;;;;;4148141;28;20749;-72
2022/08/31 00:14:19;;;;;;;1999.90;999.90;;;15.90;99.90;;;;;;4146096;28;20269;-73
2022/08/31 00:16:19;;;;;;;1999.90;768.37;;;16.00;99.90;;;;;;4148162;28;20198;-73
2022/08/31 00:18:21;;;;;;;1999.90;746.93;;;16.00;99.90;;;;;;4148037;28;20228;-73
2022/08/31 00:20:23;;;;;;;1999.90;829.13;;;16.00;99.90;;;;;;4147913;28;20182;-72
2022/08/31 00:22:23;;;;;;;1999.90;999.90;;;16.00;99.90;;;;;;4147923;28;20190;-72
2022/08/31 00:24:24;;;;;;;1999.90;501.70;;;16.00;99.90;;;;;;4147096;28;20324;-72
2022/08/31 00:26:24;;;;;;;1999.90;999.90;;;16.00;99.90;;;;;;4147764;28;20205;-72
2022/08/31 00:28:25;;;;;;;1999.90;784.23;;;16.00;99.90;;;;;;4147999;28;20714;-72
2022/08/31 00:30:26;;;;;;;1999.90;591.67;;;16.00;99.90;;;;;;4147897;28;20174;-72
2022/08/31 00:32:27;;;;;;;1999.90;777.63;;;15.90;99.90;;;;;;4147529;28;20209;-73
2022/08/31 00:34:28;;;;;;;1999.90;973.73;;;16.00;99.90;;;;;;4147296;28;20189;-72
2022/08/31 00:36:28;;;;;;;1999.90;560.20;;;16.00;99.90;;;;;;4147989;28;20573;-71
2022/08/31 00:38:29;;;;;;;1999.90;804.33;;;15.90;99.90;;;;;;4146620;28;20629;-72
2022/08/31 00:40:29;;;;;;;1999.90;906.60;;;15.90;99.90;;;;;;4147706;28;20585;-72
2022/08/31 00:42:30;;;;;;;1999.90;999.90;;;15.80;99.90;;;;;;4147598;28;20189;-72
2022/08/31 00:44:30;;;;;;;1999.90;335.27;;;15.80;99.90;;;;;;4146898;28;20185;-73
2022/08/31 00:46:35;;;;;;;1999.90;838.73;;;15.80;99.90;;;;;;4145880;28;20308;-72
2022/08/31 00:48:43;;;;;;;1999.90;549.43;;;15.90;99.90;;;;;;4147484;28;20182;-72
2022/08/31 00:50:44;;;;;;;1999.90;585.63;;;15.80;99.90;;;;;;4147391;28;20199;-72
2022/08/31 00:52:55;;;;;;;1999.90;833.63;;;15.90;99.90;;;;;;4147204;28;20217;-72
2022/08/31 00:55:01;;;;;;;1999.90;496.33;;;15.80;99.90;;;;;;4155098;28;20188;-71
2022/08/31 00:57:03;;;;;;;1999.90;844.77;;;15.80;99.90;;;;;;4163768;28;20245;-71
2022/08/31 00:59:03;;;;;;;1999.90;649.03;;;15.80;99.90;;;;;;4163732;28;20227;-71
2022/08/31 01:01:07;;;;;;;1999.90;912.90;;;15.70;99.90;;;;;;4163613;28;20177;-71
2022/08/31 01:03:09;;;;;;;1999.90;722.73;;;15.70;99.90;;;;;;4163242;28;20173;-72
2022/08/31 01:05:10;;;;;;;1999.90;751.60;;;15.70;99.90;;;;;;4163679;28;20219;-71
2022/08/31 01:07:11;;;;;;;1999.90;811.50;;;15.70;99.90;;;;;;4163734;28;20181;-71
2022/08/31 01:09:12;;;;;;;1999.90;810.60;;;15.70;99.90;;;;;;4163611;28;20177;-71
2022/08/31 01:11:14;;;;;;;1999.90;802.37;;;15.70;99.90;;;;;;4163388;28;20247;-71
2022/08/31 01:13:15;;;;;;;1999.90;848.97;;;15.80;99.90;;;;;;4162539;28;20269;-71
2022/08/31 01:15:16;;;;;;;1999.90;530.37;;;15.80;99.90;;;;;;4163325;28;20212;-70
2022/08/31 01:17:18;;;;;;;1999.90;852.00;;;15.80;99.90;;;;;;4163106;28;20192;-70
2022/08/31 01:19:38;;;;;;;1999.90;482.50;;;15.70;99.90;;;;;;4163313;28;20189;-71
2022/08/31 01:22:14;;;;;;;1999.90;999.90;;;15.70;99.90;;;;;;4163515;28;20177;-72
2022/08/31 01:24:16;;;;;;;1999.90;816.23;;;15.60;99.90;;;;;;4161569;28;20283;-72
2022/08/31 01:26:20;;;;;;;1999.90;675.23;;;15.70;99.90;;;;;;4163444;28;20223;-72
2022/08/31 01:28:21;;;;;;;1999.90;731.53;;;15.70;99.90;;;;;;4163133;28;20185;-72
2022/08/31 01:30:25;;;;;;;1999.90;824.83;;;15.80;99.90;;;;;;4163208;28;20179;-73
2022/08/31 01:32:25;;;;;;;1999.90;560.47;;;15.80;99.90;;;;;;4163156;28;20224;-72
2022/08/31 01:34:26;;;;;;;1999.90;591.50;;;15.70;99.90;;;;;;4162887;28;20181;-72
2022/08/31 01:36:27;;;;;;;1999.90;610.77;;;15.60;99.90;;;;;;4163277;28;20193;-72
2022/08/31 01:38:28;;;;;;;1999.90;999.90;;;15.70;99.90;;;;;;4163003;28;20181;-72
2022/08/31 01:40:36;;;;;;;1999.90;537.73;;;15.60;99.90;;;;;;4162932;28;20173;-72
2022/08/31 01:42:36;;;;;;;1999.90;836.33;;;15.60;99.90;;;;;;4163093;28;20184;-73
2022/08/31 01:44:37;;;;;;;1999.90;472.73;;;15.70;99.90;;;;;;4162060;28;20185;-72
2022/08/31 01:46:37;;;;;;;1999.90;269.07;;;15.70;99.90;;;;;;4162848;28;20579;-71
2022/08/31 01:48:41;;;;;;;1999.90;999.90;;;15.70;99.90;;;;;;4163004;28;20181;-72
2022/08/31 01:50:41;;;;;;;1999.90;278.17;;;15.60;99.90;;;;;;4161304;28;20268;-72
2022/08/31 01:52:42;;;;;;;1999.90;476.93;;;15.70;99.90;;;;;;4161460;28;20212;-72
2022/08/31 01:54:42;;;;;;;1999.90;381.47;;;15.70;99.90;;;;;;4162153;28;20239;-72
2022/08/31 01:56:46;;;;;;;1999.90;999.90;;;15.70;99.90;;;;;;4162850;28;20216;-72
2022/08/31 01:58:47;;;;;;;1999.90;999.90;;;15.70;99.90;;;;;;4160821;28;20199;-72
2022/08/31 02:00:47;;;;;;;1999.90;999.90;;;15.70;99.90;;;;;;4161165;28;20827;-72
2022/08/31 02:02:48;;;;;;;1999.90;756.50;;;15.80;99.90;;;;;;4147719;28;20213;-72
2022/08/31 02:04:48;;;;;;;1999.90;999.90;;;15.90;99.90;;;;;;4146519;28;20178;-71
2022/08/31 02:06:51;;;;;;;1999.90;759.67;;;15.80;99.90;;;;;;4146308;28;20221;-71
2022/08/31 02:08:52;;;;;;;1999.90;897.43;;;15.70;99.90;;;;;;4146090;28;20923;-71
2022/08/31 02:10:52;;;;;;;1999.90;382.40;;;15.60;99.90;;;;;;4146087;28;20230;-71
2022/08/31 02:12:53;;;;;;;1999.90;780.67;;;15.50;99.90;;;;;;4145311;28;20217;-73
2022/08/31 02:14:53;;;;;;;1999.90;637.70;;;15.50;99.90;;;;;;4146010;28;20185;-72
2022/08/31 02:16:54;;;;;;;1999.90;704.70;;;15.30;99.90;;;;;;4146114;28;20185;-72
2022/08/31 02:18:55;;;;;;;1999.90;582.13;;;15.30;99.90;;;;;;4145868;28;20676;-72
2022/08/31 02:20:55;;;;;;;1999.90;999.90;;;15.20;99.90;;;;;;4145851;28;20613;-72
2022/08/31 02:22:57;;;;;;;1999.90;543.80;;;15.10;99.90;;;;;;4143927;28;20280;-72
2022/08/31 02:24:57;;;;;;;1999.90;677.13;;;15.10;99.90;;;;;;4146034;28;20252;-72
2022/08/31 02:26:58;;;;;;;1999.90;833.80;;;15.10;99.90;;;;;;4146030;28;20182;-72
2022/08/31 02:28:59;;;;;;;1999.90;931.63;;;15.10;99.90;;;;;;4145735;28;20264;-72
2022/08/31 02:31:17;;;;;;;1999.90;684.07;;;15.10;99.90;;;;;;4145160;28;20198;-72
2022/08/31 02:33:17;;;;;;;1999.90;878.97;;;15.00;99.90;;;;;;4147821;28;20224;-72
2022/08/31 02:35:18;;;;;;;1999.90;685.83;;;15.00;99.90;;;;;;4161858;28;20755;-72
2022/08/31 02:37:18;;;;;;;1999.90;746.30;;;14.90;99.90;;;;;;4162228;28;20226;-72
2022/08/31 02:39:19;;;;;;;1999.90;999.90;;;14.90;99.90;;;;;;4162033;28;20173;-72
2022/08/31 02:41:20;;;;;;;1999.90;752.67;;;14.90;99.90;;;;;;4162012;28;20264;-72
2022/08/31 02:43:20;;;;;;;1999.90;695.77;;;14.90;99.90;;;;;;4161502;28;20272;-72
2022/08/31 02:45:22;;;;;;;1999.90;542.60;;;15.00;99.90;;;;;;4161876;28;20203;-72
2022/08/31 02:47:22;;;;;;;1999.90;751.93;;;15.10;99.90;;;;;;4162245;28;20180;-72
2022/08/31 02:49:23;;;;;;;1999.90;730.77;;;15.10;99.90;;;;;;4160783;28;20308;-72
2022/08/31 02:51:23;;;;;;;1999.90;897.47;;;14.80;99.90;;;;;;4162196;28;20200;-72
2022/08/31 02:53:24;;;;;;;1999.90;929.67;;;14.80;99.90;;;;;;4161445;28;20213;-72
2022/08/31 02:55:26;;;;;;;1999.90;976.83;;;14.80;99.90;;;;;;4160384;28;20212;-72
2022/08/31 02:57:27;;;;;;;1999.90;725.50;;;14.80;99.90;;;;;;4161855;28;20181;-71
2022/08/31 02:59:28;;;;;;;1999.90;999.90;;;14.80;99.90;;;;;;4161478;28;20621;-71
2022/08/31 03:01:28;;;;;;;1999.90;804.13;;;14.80;99.90;;;;;;4161909;28;20268;-72
2022/08/31 03:03:29;;;;;;;1999.90;747.93;;;14.70;99.90;;;;;;4161431;28;20200;-72
2022/08/31 03:05:30;;;;;;;1999.90;652.03;;;14.70;99.90;;;;;;4161899;28;20254;-71
2022/08/31 03:07:32;;;;;;;1999.90;713.23;;;14.70;99.90;;;;;;4162000;28;20223;-71
2022/08/31 03:09:33;;;;;;;1999.90;902.77;;;14.70;99.90;;;;;;4163205;28;20232;-71
2022/08/31 03:11:33;;;;;;;1999.90;756.60;;;14.70;99.90;;;;;;4165225;28;20173;-71
2022/08/31 03:13:36;;;;;;;1999.90;770.60;;;14.70;99.90;;;;;;4164571;28;20262;-71
2022/08/31 03:15:37;;;;;;;1999.90;709.73;;;14.70;99.90;;;;;;4165002;28;20231;-71
2022/08/31 03:17:38;;;;;;;1999.90;899.47;;;14.70;99.90;;;;;;4164984;28;20181;-71
2022/08/31 03:19:38;;;;;;;1999.90;895.50;;;14.60;99.90;;;;;;4165438;28;20221;-72
2022/08/31 03:21:39;;;;;;;1999.90;999.90;;;14.80;99.90;;;;;;4165114;28;20177;-70
2022/08/31 03:23:40;;;;;;;1999.90;884.37;;;14.80;99.90;;;;;;4164646;28;20235;-70
2022/08/31 03:25:40;;;;;;;1999.90;744.53;;;14.90;99.90;;;;;;4165003;28;20212;-72
2022/08/31 03:27:41;;;;;;;1999.90;895.30;;;14.90;99.90;;;;;;4164655;28;20181;-71
2022/08/31 03:29:42;;;;;;;1999.90;910.60;;;15.00;99.90;;;;;;4164910;28;20676;-71
2022/08/31 03:31:42;;;;;;;1999.90;999.90;;;15.00;99.90;;;;;;4165098;28;20706;-71
2022/08/31 03:33:43;;;;;;;1999.90;756.07;;;14.90;99.90;;;;;;4164261;28;20636;-71
2022/08/31 03:35:44;;;;;;;1999.90;723.43;;;14.90;99.90;;;;;;4164992;28;20197;-72
2022/08/31 03:37:45;;;;;;;1999.90;999.90;;;14.90;99.90;;;;;;4164689;28;20189;-71
2022/08/31 03:39:46;;;;;;;1999.90;545.87;;;14.90;99.90;;;;;;4164584;28;20633;-71
2022/08/31 03:41:47;;;;;;;1999.90;790.50;;;14.90;99.90;;;;;;4164610;28;20180;-71
2022/08/31 03:43:47;;;;;;;1999.90;660.30;;;15.00;99.90;;;;;;4163843;28;20197;-71
2022/08/31 03:45:48;;;;;;;1999.90;899.43;;;14.90;99.90;;;;;;4164889;28;20197;-71
2022/08/31 03:47:49;;;;;;;1999.90;999.90;;;14.90;99.90;;;;;;4164542;28;20188;-71
2022/08/31 03:49:49;;;;;;;1999.90;873.27;;;14.80;99.90;;;;;;4164513;28;20743;-71
2022/08/31 03:51:51;;;;;;;1999.90;858.80;;;14.80;99.90;;;;;;4164513;28;20648;-71
2022/08/31 03:53:51;;;;;;;1999.90;879.10;;;14.70;99.90;;;;;;4163673;28;20185;-71
2022/08/31 03:55:59;;;;;;;1999.90;661.27;;;14.60;99.90;;;;;;4164563;28;20197;-71
2022/08/31 03:58:01;;;;;;;1999.90;758.17;;;14.70;99.90;;;;;;4164335;28;20173;-71
2022/08/31 04:00:04;;;;;;;1999.90;681.07;;;14.80;99.90;;;;;;4164323;28;20990;-71
2022/08/31 04:02:05;;;;;;;1999.90;685.13;;;14.80;99.90;;;;;;4164363;28;20209;-71
2022/08/31 04:04:05;;;;;;;1999.90;721.80;;;14.80;99.90;;;;;;4163647;28;20172;-71
2022/08/31 04:06:11;;;;;;;1999.90;873.20;;;14.80;99.90;;;;;;4161379;28;20214;-71
2022/08/31 04:08:12;;;;;;;1999.90;962.43;;;14.80;99.90;;;;;;4148107;28;20192;-71
2022/08/31 04:10:13;;;;;;;1999.90;901.80;;;14.80;99.90;;;;;;4147851;28;20783;-71
2022/08/31 04:12:16;;;;;;;1999.90;810.00;;;14.70;99.90;;;;;;4148151;28;20210;-71
2022/08/31 04:14:17;;;;;;;1999.90;754.67;;;14.80;99.90;;;;;;4147506;28;20189;-71
2022/08/31 04:16:20;;;;;;;1999.90;834.20;;;14.80;99.90;;;;;;4147809;28;20586;-71
2022/08/31 04:18:21;;;;;;;1999.90;714.27;;;14.70;99.90;;;;;;4147952;28;20265;-72
2022/08/31 04:20:22;;;;;;;1999.90;610.83;;;14.70;99.90;;;;;;4147470;28;20162;-71
2022/08/31 04:22:22;;;;;;;1999.90;912.63;;;14.60;99.90;;;;;;4147461;28;20185;-71
2022/08/31 04:24:23;;;;;;;1999.90;731.37;;;14.50;99.90;;;;;;4147151;28;20236;-71
2022/08/31 04:26:26;;;;;;;1999.90;868.33;;;14.60;99.90;;;;;;4147710;28;20209;-71
2022/08/31 04:28:26;;;;;;;1999.90;533.63;;;14.60;99.90;;;;;;4148017;28;20231;-71
2022/08/31 04:30:27;;;;;;;1999.90;847.03;;;14.50;99.90;;;;;;4147702;28;20993;-71
2022/08/31 04:32:27;;;;;;;1999.90;844.90;;;14.50;99.90;;;;;;4147494;28;20343;-71
2022/08/31 04:34:28;;;;;;;1999.90;948.33;;;14.50;99.90;;;;;;4147278;28;20594;-70
2022/08/31 04:36:29;;;;;;;1999.90;999.90;;;14.50;99.90;;;;;;4147858;28;20221;-71
2022/08/31 04:38:30;;;;;;;1999.90;999.90;;;14.50;99.90;;;;;;4147502;28;20276;-70
2022/08/31 04:40:30;;;;;;;1999.90;925.97;;;14.50;99.90;;;;;;4147607;28;20585;-71
2022/08/31 04:42:31;;;;;;;1999.90;832.97;;;14.40;99.90;;;;;;4149584;28;20189;-71
2022/08/31 04:44:32;;;;;;;1999.90;625.43;;;14.50;99.90;;;;;;4164886;28;20184;-71
2022/08/31 04:46:35;;;;;;;1999.90;931.93;;;14.50;99.90;;;;;;4164490;28;20205;-70
2022/08/31 04:48:37;;;;;;;1999.90;998.10;;;14.50;99.90;;;;;;4166420;28;20191;-70
2022/08/31 04:50:38;;;;;;;1999.90;531.67;;;14.40;99.90;;;;;;4164312;28;20935;-70
2022/08/31 04:52:38;;;;;;;1999.90;866.23;;;14.40;99.90;;;;;;4165911;28;20259;-70
2022/08/31 04:54:39;;;;;;;1999.90;904.97;;;14.20;99.90;;;;;;4165500;28;20177;-70
2022/08/31 04:56:42;;;;;;;1999.90;851.63;;;14.30;99.90;;;;;;4165812;28;20174;-71
2022/08/31 04:58:47;;;;;;;1999.90;708.93;;;14.30;99.90;;;;;;4166569;28;20181;-70
2022/08/31 05:00:47;;;;;;;1999.90;877.13;;;14.40;99.90;;;;;;4166705;28;20183;-71
2022/08/31 05:02:48;;;;;;;1999.90;771.67;;;14.30;99.90;;;;;;4165737;28;20267;-71
2022/08/31 05:04:48;;;;;;;1999.90;804.43;;;14.30;99.90;;;;;;4166061;28;20187;-71
2022/08/31 05:06:49;;;;;;;1999.90;772.47;;;14.10;99.90;;;;;;4166588;28;20188;-71
2022/08/31 05:08:55;;;;;;;1999.90;990.33;;;14.10;99.90;;;;;;4166522;28;20188;-71
2022/08/31 05:10:56;;;;;;;1999.90;739.70;;;14.10;99.90;;;;;;4166277;28;20185;-70
2022/08/31 05:12:57;;;;;;;1999.90;786.10;;;14.10;99.90;;;;;;4165510;28;20228;-71
2022/08/31 05:14:57;;;;;;;1999.90;673.17;;;14.10;99.90;;;;;;4166198;28;20260;-70
2022/08/31 05:17:00;;;;;;;1999.90;790.67;;;14.00;99.90;;;;;;4166537;28;20196;-70
2022/08/31 05:19:00;;;;;;;1999.90;823.70;;;14.10;99.90;;;;;;4166436;28;20238;-69
2022/08/31 05:21:29;;;;;;;1999.90;878.20;;;14.10;99.90;;;;;;4166120;28;20595;-70
2022/08/31 05:23:30;;;;;;;1999.90;813.70;;;14.00;99.90;;;;;;4165471;28;20208;-70
2022/08/31 05:25:31;;;;;;;1999.90;906.40;;;14.00;99.90;;;;;;4166111;28;20229;-69
2022/08/31 05:27:33;;;;;;;1999.90;847.07;;;14.10;99.90;;;;;;4166272;28;20185;-70
2022/08/31 05:29:34;;;;;;;1999.90;823.87;;;13.90;99.90;;;;;;4166223;28;20264;-70
2022/08/31 05:31:37;;;;;;;1999.90;868.97;;;13.90;99.90;;;;;;4164731;28;20212;-70
2022/08/31 05:33:38;;;;;;;1999.90;818.17;;;13.90;99.90;;;;;;4161466;28;20303;-70
2022/08/31 05:35:39;;;;;;;1999.90;870.43;;;13.90;99.90;;;;;;4163009;28;20201;-70
2022/08/31 05:37:41;;;;;;;1999.90;969.67;;;13.90;99.90;;;;;;4162631;28;20185;-70
2022/08/31 05:39:41;;;;;;;1999.90;999.90;;;14.00;99.90;;;;;;4162815;28;20226;-71
2022/08/31 05:41:45;;;;;;;1999.90;999.90;;;13.90;99.90;;;;;;4162826;28;20208;-70
2022/08/31 05:43:45;;;;;;;1999.90;923.20;;;13.90;99.90;;;;;;4162392;28;20188;-70
2022/08/31 05:45:46;;;;;;;1999.90;782.40;;;13.90;99.90;;;;;;4162803;28;20211;-70
2022/08/31 05:47:47;;;;;;;1999.90;976.23;;;14.00;99.90;;;;;;4162655;28;20675;-70
2022/08/31 05:49:48;;;;;;;1999.90;910.93;;;14.00;99.90;;;;;;4162708;28;20219;-70
2022/08/31 05:51:48;;;;;;;1999.90;839.27;;;14.00;99.90;;;;;;4162606;28;20271;-70
2022/08/31 05:53:49;;;;;;;1999.90;728.97;;;14.10;99.90;;;;;;4161703;28;20251;-70
2022/08/31 05:55:58;;;;;;;1999.90;905.60;;;14.10;99.90;;;;;;4162651;28;20583;-70
2022/08/31 05:57:59;;;;;;;1999.90;911.17;;;13.90;99.90;;;;;;4162468;28;20271;-70
2022/08/31 05:59:59;;;;;;;1999.90;887.20;;;13.90;99.90;;;;;;4162519;28;20648;-69
2022/08/31 06:02:01;;;;;;;1999.90;997.67;;;13.90;99.90;;;;;;4162493;28;20185;-70
2022/08/31 06:04:02;;;;;;;1999.90;769.37;;;13.90;99.90;;;;;;4161729;28;20225;-70
2022/08/31 06:06:02;;;;;;;1999.90;757.97;;;13.90;99.90;;;;;;4162301;28;20208;-70
2022/08/31 06:08:03;;;;;;;1999.90;850.03;;;13.90;99.90;;;;;;4151296;28;20251;-69
2022/08/31 06:10:04;;;;;;;1999.90;855.40;;;13.70;99.90;;;;;;4146025;28;20276;-69
2022/08/31 06:12:05;;;;;;;1999.90;852.50;;;13.70;99.90;;;;;;4146037;28;20564;-69
2022/08/31 06:14:05;;;;;;;1999.90;841.83;;;13.70;99.90;;;;;;4145275;28;20269;-70
2022/08/31 06:16:08;;;;;;;1999.90;810.17;;;13.60;99.90;;;;;;4145815;28;20270;-70
2022/08/31 06:18:09;;;;;;;1999.90;815.10;;;13.60;99.90;;;;;;4145738;28;20273;-69
2022/08/31 06:20:10;;;;;;;1999.90;700.73;;;13.70;99.90;;;;;;4145325;28;20236;-68
2022/08/31 06:22:11;;;;;;;1999.90;786.73;;;13.90;99.90;;;;;;4144030;28;20696;-70
2022/08/31 06:24:11;;;;;;;1999.90;824.10;;;14.10;99.90;;;;;;4145075;28;20649;-69
2022/08/31 06:26:13;;;;;;;1999.90;816.20;;;14.20;99.90;;;;;;4145943;28;20233;-69
2022/08/31 06:28:14;;;;;;;1999.90;774.27;;;14.30;99.90;;;;;;4145803;28;20768;-69
2022/08/31 06:30:19;;;;;;;1999.90;677.47;;;14.20;99.90;;;;;;4145559;28;20189;-69
2022/08/31 06:32:20;;;;;;;1999.90;964.50;;;14.30;99.90;;;;;;4145596;28;20324;-70
2022/08/31 06:34:22;;;;;;;1999.90;912.77;;;14.30;99.90;;;;;;4145199;28;20235;-69
2022/08/31 06:36:25;;;;;;;1999.90;757.43;;;14.40;99.90;;;;;;4145587;28;20212;-69
2022/08/31 06:38:26;;;;;;;1999.90;976.90;;;14.40;99.90;;;;;;4145797;28;20193;-69
2022/08/31 06:40:28;;;;;;;1999.90;935.00;;;14.50;99.90;;;;;;4145717;28;20186;-69
2022/08/31 06:42:29;;;;;;;1999.90;586.53;;;14.40;99.90;;;;;;4145716;28;20193;-69
2022/08/31 06:44:30;;;;;;;1999.90;635.77;;;14.40;99.90;;;;;;4144698;28;20200;-69
2022/08/31 06:46:32;;;;;;;1999.90;873.60;;;14.50;99.90;;;;;;4145368;28;20213;-69
2022/08/31 06:48:34;;;;;;;1999.90;625.83;;;14.50;99.90;;;;;;4145531;28;20182;-70
2022/08/31 06:50:37;;;;;;;1999.90;471.77;;;14.70;99.90;;;;;;4145570;28;20186;-69
2022/08/31 06:52:38;;;;;;;1999.90;718.53;;;14.80;99.90;;;;;;4145272;28;20239;-69
2022/08/31 06:54:40;;;;;;;1999.90;999.90;;;14.90;99.90;;;;;;4144851;28;20189;-69
2022/08/31 06:56:40;;;;;;;1999.90;651.37;;;14.90;99.90;;;;;;4145533;28;20327;-69
2022/08/31 06:58:41;;;;;;;1999.90;999.90;;;14.90;99.90;;;;;;4144099;28;20186;-69
2022/08/31 07:00:41;;;;;;;1999.90;825.60;;;15.10;99.90;;;;;;4152965;28;20216;-69
2022/08/31 07:02:42;;;;;;;1999.90;999.90;;;15.10;99.90;;;;;;4161617;28;20242;-70
2022/08/31 07:04:42;;;;;;;1999.90;824.13;;;15.30;99.90;;;;;;4161101;28;20246;-69
2022/08/31 07:06:44;;;;;;;1999.90;594.13;;;15.40;99.90;;;;;;4161971;28;20903;-70
2022/08/31 07:08:46;;;;;;;1999.90;898.17;;;15.50;99.90;;;;;;4161634;28;20197;-69
2022/08/31 07:10:47;;;;;;;1999.90;247.10;;;15.70;99.90;;;;;;4161775;28;20192;-69
2022/08/31 07:12:48;;;;;;;1999.90;858.40;;;15.70;99.90;;;;;;4160968;28;20213;-69
2022/08/31 07:14:49;;;;;;;1999.90;999.90;;;15.70;99.90;;;;;;4161525;28;20182;-69
2022/08/31 07:16:51;;;;;;;1999.90;993.37;;;15.70;99.90;;;;;;4161560;28;20641;-69
2022/08/31 07:18:53;;;;;;;1999.90;999.90;;;15.70;99.90;;;;;;4161600;28;20284;-70
2022/08/31 07:20:54;;;;;;;1999.90;926.07;;;15.70;99.90;;;;;;4161482;28;20250;-70
2022/08/31 07:22:56;;;;;;;1999.90;726.93;;;15.80;99.90;;;;;;4160856;28;20189;-70
2022/08/31 07:24:56;;;;;;;1999.90;999.90;;;15.80;99.90;;;;;;4161462;28;20212;-68
2022/08/31 07:27:01;;;;;;;1999.90;999.90;;;15.70;99.90;;;;;;4161514;28;20177;-68
2022/08/31 07:29:04;;;;;;;1999.90;631.00;;;15.90;99.90;;;;;;4161585;28;20698;-68
2022/08/31 07:31:05;;;;;;;1999.90;836.80;;;16.10;99.90;;;;;;4161725;28;20197;-71
2022/08/31 07:33:06;;;;;;;1999.90;999.90;;;16.20;99.90;;;;;;4160912;28;20296;-69
2022/08/31 07:35:07;;;;;;;1999.90;608.17;;;16.50;99.90;;;;;;4161273;28;20204;-70
2022/08/31 07:44:08;;;;;;;1999.90;999.90;;;16.70;99.90;;;;;;4160587;28;20195;-69
2022/08/31 07:46:09;;;;;;;1999.90;740.73;;;16.50;99.90;;;;;;4161191;28;20267;-70
2022/08/31 07:48:09;;;;;;;1999.90;801.13;;;16.50;99.90;;;;;;4161032;28;20255;-70
2022/08/31 07:50:11;;;;;;;1999.90;999.90;;;16.60;99.90;;;;;;4161177;28;20191;-70
2022/08/31 07:52:15;;;;;;;1999.90;795.57;;;16.90;99.90;;;;;;4161217;28;20268;-69
2022/08/31 07:54:19;;;;;;;1999.90;690.17;;;16.90;99.90;;;;;;4160797;28;20559;-69
2022/08/31 07:56:22;;;;;;;1999.90;999.90;;;17.10;99.20;;;;;;4162359;28;20235;-72
2022/08/31 07:58:22;;;;;;;1999.90;764.27;;;17.10;99.50;;;;;;4164315;28;20268;-69
2022/08/31 08:00:26;;;;;;;1999.90;722.30;;;17.00;99.90;;;;;;4164269;28;20185;-70
2022/08/31 08:02:27;;;;;;;1999.90;999.90;;;17.00;99.90;;;;;;4164111;28;20254;-69
2022/08/31 08:04:29;;;;;;;1999.90;999.90;;;17.20;99.90;;;;;;4163525;28;20272;-69
2022/08/31 08:06:29;;;;;;;1999.90;846.53;;;17.60;98.00;;;;;;4155224;28;20209;-69
2022/08/31 08:08:30;;;;;;;1999.90;354.53;;;17.50;96.00;;;;;;4147668;28;20717;-69
2022/08/31 08:10:32;;;;;;;1999.90;536.37;;;16.90;98.40;;;;;;4147619;28;20194;-69
2022/08/31 08:12:35;;;;;;;1594.70;229.47;;;16.90;98.70;;;;;;4147494;28;20220;-69
2022/08/31 08:14:37;;;;;;;1999.90;999.90;;;17.10;99.90;;;;;;4147212;28;20244;-69
2022/08/31 08:16:38;;;;;;;1999.90;164.37;;;17.30;99.90;;;;;;4147932;28;20201;-69
2022/08/31 08:18:39;;;;;;;1999.90;558.00;;;17.60;99.90;;;;;;4145975;28;20649;-71
2022/08/31 08:20:39;;;;;;;1999.90;770.20;;;17.60;99.20;;;;;;4147503;28;20186;-71
2022/08/31 08:22:42;;;;;;;1999.90;528.60;;;17.70;98.00;;;;;;4147385;28;20178;-70
2022/08/31 08:24:45;;;;;;;1999.90;999.90;;;17.80;99.00;;;;;;4146766;28;20680;-70
2022/08/31 08:26:48;;;;;;;1999.90;741.50;;;17.80;96.60;;;;;;4147328;28;20212;-70
2022/08/31 08:28:49;;;;;;;1999.90;648.33;;;18.00;98.00;;;;;;4147251;28;20193;-70
2022/08/31 08:30:53;;;;;;;1999.90;485.97;;;18.10;97.20;;;;;;4147377;28;20220;-70
2022/08/31 08:32:53;;;;;;;1999.90;751.20;;;18.30;98.00;;;;;;4146583;28;20308;-70
2022/08/31 08:34:54;;;;;;;1999.90;394.47;;;18.70;95.80;;;;;;4147232;28;20182;-71
2022/08/31 08:36:54;;;;;;;1999.90;821.77;;;18.60;94.80;;;;;;4147382;28;20182;-70
2022/08/31 08:38:56;;;;;;;1999.90;459.40;;;18.30;95.20;;;;;;4147176;28;20192;-70
2022/08/31 08:40:58;;;;;;;1999.90;510.17;;;17.90;94.70;;;;;;4147164;28;20244;-70
2022/08/31 08:43:01;;;;;;;1999.90;389.40;;;17.90;95.10;;;;;;4146854;28;20201;-70
2022/08/31 08:45:01;;;;;;;1999.90;540.53;;;18.20;95.40;;;;;;4147283;28;20586;-70
2022/08/31 08:47:06;;;;;;;1999.90;552.37;;;18.10;97.30;;;;;;4147337;28;20185;-70
2022/08/31 08:49:27;;;;;;;1999.90;528.63;;;18.60;95.60;;;;;;4147291;28;20243;-70
2022/08/31 08:51:35;;;;;;;1999.90;735.03;;;18.20;94.10;;;;;;4142921;28;20206;-70
2022/08/31 08:53:37;;;;;;;1999.90;693.77;;;17.80;95.70;;;;;;4146441;28;20626;-69
2022/08/31 08:55:40;;;;;;;1999.90;344.73;;;18.00;96.60;;;;;;4147276;28;20216;-70
2022/08/31 08:57:43;;;;;;;1999.90;786.57;;;18.30;96.70;;;;;;4146870;28;20185;-70
2022/08/31 08:59:46;;;;;;;1999.90;569.53;;;18.30;95.70;;;;;;4156618;28;20181;-70
2022/08/31 09:01:51;;;;;;;1999.90;815.27;;;18.40;96.00;;;;;;4163251;28;20188;-70
2022/08/31 09:04:38;;;;;;;1999.90;999.90;;;18.20;94.50;;;;;;4162681;28;20698;-70
2022/08/31 09:07:10;;;;;;;1999.90;228.43;;;18.40;95.40;;;;;;4163439;28;20254;-70
2022/08/31 09:09:31;;;;;;;1999.90;236.33;;;18.50;94.80;;;;;;4163356;28;20201;-70
2022/08/31 09:11:51;;;;;;;1999.90;691.80;;;18.50;95.40;;;;;;4163043;28;20184;-70
2022/08/31 09:14:08;;;;;;;1999.90;167.63;;;18.70;94.50;;;;;;4162442;28;20747;-70
2022/08/31 09:16:16;;;;;;;1999.90;807.37;;;19.00;93.20;;;;;;4163134;28;20686;-70
2022/08/31 09:18:33;;;;;;;1999.90;528.00;;;18.70;95.00;;;;;;4163016;28;20181;-70
2022/08/31 09:20:33;;;;;;;1999.90;426.77;;;18.70;94.60;;;;;;4163090;28;20196;-70
2022/08/31 09:22:48;;;;;;;1999.90;785.57;;;18.50;95.60;;;;;;4162915;28;20180;-69
2022/08/31 09:24:51;;;;;;;1999.90;612.87;;;18.60;94.90;;;;;;4162881;28;20661;-69
2022/08/31 09:27:17;;;;;;;1999.90;843.67;;;18.10;95.60;;;;;;4163086;28;20193;-69
2022/08/31 09:29:27;;;;;;;1999.90;685.80;;;18.30;96.60;;;;;;4165019;28;20192;-70
2022/08/31 09:31:38;;;;;;;1999.90;364.13;;;18.70;94.90;;;;;;4165477;28;20196;-70
2022/08/31 09:33:49;;;;;;;1999.90;799.20;;;19.10;92.40;;;;;;4164784;28;20216;-70
2022/08/31 09:35:55;;;;;;;1999.90;999.90;;;19.20;92.70;;;;;;4165440;28;20201;-70
2022/08/31 09:38:09;;;;;;;1999.90;528.53;;;19.10;92.70;;;;;;4165232;28;20732;-70
2022/08/31 09:40:43;;;;;;;1999.90;999.90;;;19.00;92.50;;;;;;4165027;28;20173;-70
2022/08/31 09:42:58;;;;;;;1999.90;450.90;;;19.00;92.40;;;;;;4163817;28;20219;-70
2022/08/31 09:45:11;;;;;;;1999.90;999.90;;;19.00;93.90;;;;;;4163541;28;20643;-70
2022/08/31 09:47:47;;;;;;;1999.90;244.60;;;19.10;93.60;;;;;;4163701;28;20219;-70
2022/08/31 09:49:54;;;;;;;1999.90;800.97;;;19.10;93.40;;;;;;4180089;28;20188;-70
2022/08/31 09:55:13;;;;;;;1999.90;999.90;;;19.30;92.50;;;;;;4164289;28;20259;-71
2022/08/31 09:57:14;;;;;;;1999.90;769.40;;;18.80;93.40;;;;;;4164490;28;20185;-71
2022/08/31 09:59:28;;;;;;;1999.90;583.33;;;18.70;93.00;;;;;;4165535;28;20177;-71
2022/08/31 10:01:43;;;;;;;1999.90;440.93;;;19.00;93.70;;;;;;4165575;28;20252;-72
2022/08/31 10:03:47;;;;;;;1999.90;818.47;;;19.00;92.00;;;;;;4163585;28;20177;-70
2022/08/31 10:05:51;;;;;;;1999.90;551.07;;;19.70;92.20;;;;;;4162709;28;20980;-69
2022/08/31 10:08:03;;;;;;;1999.90;339.50;;;19.80;90.70;;;;;;4148838;28;20192;-70
2022/08/31 10:10:10;;;;;;;1999.90;873.47;;;19.80;90.50;;;;;;4131688;28;20174;-70
2022/08/31 10:12:32;;;;;;;1999.90;607.40;;;19.50;87.70;;;;;;4147661;28;20576;-70
2022/08/31 10:14:55;;;;;;;1999.90;592.67;;;19.80;83.20;;;;;;4147452;28;20247;-70